sensor_id;sensor_type;location;lat;lon;timestamp;pressure;altitude;pressure_sealevel;temperature;humidity
61324;BME280;47203;48.428;11.974;2023-06-24T00:01:37;97651.91;;;22.43;45.46
61324;BME280;47203;48.428;11.974;2023-06-24T00:03:43;97651.91;;;22.43;45.83
61324;BME280;47203;48.428;11.974;2023-06-24T00:05:48;97646.03;;;22.41;45.86
61324;BME280;47203;48.428;11.974;2023-06-24T00:07:56;97648.59;;;22.38;45.76
61324;BME280;47203;48.428;11.974;2023-06-24T00:10:06;97649.22;;;22.35;45.70
61324;BME280;47203;48.428;11.974;2023-06-24T00:12:11;97650.66;;;22.32;45.97
61324;BME280;47203;48.428;11.974;2023-06-24T00:14:21;97660.56;;;22.31;45.71
61324;BME280;47203;48.428;11.974;2023-06-24T00:16:28;97659.31;;;22.29;46.09
61324;BME280;47203;48.428;11.974;2023-06-24T00:18:33;97660.41;;;22.28;46.24
61324;BME280;47203;48.428;11.974;2023-06-24T00:20:38;97661.84;;;22.25;46.29
61324;BME280;47203;48.428;11.974;2023-06-24T00:22:45;97664.53;;;22.25;46.23
61324;BME280;47203;48.428;11.974;2023-06-24T00:24:53;97661.34;;;22.23;46.42
61324;BME280;47203;48.428;11.974;2023-06-24T00:26:58;97662.13;;;22.24;46.08
61324;BME280;47203;48.428;11.974;2023-06-24T00:29:03;97657.09;;;22.22;46.31
61324;BME280;47203;48.428;11.974;2023-06-24T00:31:08;97659.78;;;22.22;46.19
61324;BME280;47203;48.428;11.974;2023-06-24T00:33:13;97662.00;;;22.20;46.41
61324;BME280;47203;48.428;11.974;2023-06-24T00:35:18;97655.84;;;22.20;46.15
61324;BME280;47203;48.428;11.974;2023-06-24T00:37:23;97654.59;;;22.17;46.25
61324;BME280;47203;48.428;11.974;2023-06-24T00:39:29;97652.53;;;22.14;46.20
61324;BME280;47203;48.428;11.974;2023-06-24T00:41:36;97642.78;;;22.09;46.48
61324;BME280;47203;48.428;11.974;2023-06-24T00:43:41;97648.75;;;22.06;46.59
61324;BME280;47203;48.428;11.974;2023-06-24T00:45:46;97647.50;;;22.04;46.54
61324;BME280;47203;48.428;11.974;2023-06-24T00:47:51;97647.34;;;22.00;46.87
61324;BME280;47203;48.428;11.974;2023-06-24T00:49:58;97649.22;;;22.00;46.56
61324;BME280;47203;48.428;11.974;2023-06-24T00:52:03;97639.94;;;21.97;46.61
61324;BME280;47203;48.428;11.974;2023-06-24T00:54:08;97648.28;;;21.95;46.53
61324;BME280;47203;48.428;11.974;2023-06-24T00:56:14;97644.03;;;21.94;46.93
61324;BME280;47203;48.428;11.974;2023-06-24T00:58:23;97639.78;;;21.93;47.29
61324;BME280;47203;48.428;11.974;2023-06-24T01:00:28;97635.19;;;21.94;47.31
61324;BME280;47203;48.428;11.974;2023-06-24T01:02:34;97630.16;;;21.92;46.81
61324;BME280;47203;48.428;11.974;2023-06-24T01:04:39;97634.41;;;21.93;46.94
61324;BME280;47203;48.428;11.974;2023-06-24T01:06:45;97634.41;;;21.93;47.08
61324;BME280;47203;48.428;11.974;2023-06-24T01:08:50;97640.56;;;21.94;47.20
61324;BME280;47203;48.428;11.974;2023-06-24T01:10:58;97639.47;;;21.95;47.12
61324;BME280;47203;48.428;11.974;2023-06-24T01:13:03;97644.03;;;21.94;47.55
61324;BME280;47203;48.428;11.974;2023-06-24T01:15:11;97637.09;;;21.93;47.45
61324;BME280;47203;48.428;11.974;2023-06-24T01:17:21;97641.66;;;21.93;47.75
61324;BME280;47203;48.428;11.974;2023-06-24T01:19:59;97634.75;;;21.92;47.59
61324;BME280;47203;48.428;11.974;2023-06-24T01:22:23;97622.44;;;21.91;47.54
61324;BME280;47203;48.428;11.974;2023-06-24T01:24:50;97630.47;;;21.91;48.07
61324;BME280;47203;48.428;11.974;2023-06-24T01:27:19;97627.03;;;21.90;47.92
61324;BME280;47203;48.428;11.974;2023-06-24T01:29:52;97623.53;;;21.90;48.06
61324;BME280;47203;48.428;11.974;2023-06-24T01:32:06;97628.13;;;21.89;47.70
61324;BME280;47203;48.428;11.974;2023-06-24T01:34:20;97625.13;;;21.91;47.70
61324;BME280;47203;48.428;11.974;2023-06-24T01:36:28;97628.25;;;21.93;47.37
61324;BME280;47203;48.428;11.974;2023-06-24T01:38:36;97612.50;;;21.91;47.66
61324;BME280;47203;48.428;11.974;2023-06-24T01:40:44;97606.34;;;21.91;48.01
61324;BME280;47203;48.428;11.974;2023-06-24T01:42:49;97607.44;;;21.90;47.82
61324;BME280;47203;48.428;11.974;2023-06-24T01:44:56;97602.41;;;21.88;47.98
61324;BME280;47203;48.428;11.974;2023-06-24T01:47:07;97600.81;;;21.87;48.42
61324;BME280;47203;48.428;11.974;2023-06-24T01:49:14;97606.66;;;21.89;48.04
61324;BME280;47203;48.428;11.974;2023-06-24T01:51:22;97610.13;;;21.90;48.17
61324;BME280;47203;48.428;11.974;2023-06-24T01:53:32;97610.94;;;21.90;48.28
61324;BME280;47203;48.428;11.974;2023-06-24T01:55:41;97612.50;;;21.91;47.89
61324;BME280;47203;48.428;11.974;2023-06-24T01:57:49;97611.72;;;21.91;47.82
61324;BME280;47203;48.428;11.974;2023-06-24T01:59:55;97609.34;;;21.89;47.86
61324;BME280;47203;48.428;11.974;2023-06-24T02:02:06;97608.88;;;21.87;48.33
61324;BME280;47203;48.428;11.974;2023-06-24T02:04:12;97604.94;;;21.85;48.18
61324;BME280;47203;48.428;11.974;2023-06-24T02:06:18;97599.91;;;21.83;48.19
61324;BME280;47203;48.428;11.974;2023-06-24T02:08:24;97599.41;;;21.81;48.28
61324;BME280;47203;48.428;11.974;2023-06-24T02:10:30;97610.44;;;21.79;47.85
61324;BME280;47203;48.428;11.974;2023-06-24T02:12:36;97611.53;;;21.78;47.63
61324;BME280;47203;48.428;11.974;2023-06-24T02:14:42;97616.13;;;21.78;47.97
61324;BME280;47203;48.428;11.974;2023-06-24T02:16:48;97615.66;;;21.76;47.92
61324;BME280;47203;48.428;11.974;2023-06-24T02:19:01;97615.19;;;21.74;48.29
61324;BME280;47203;48.428;11.974;2023-06-24T02:21:06;97614.41;;;21.73;48.32
61324;BME280;47203;48.428;11.974;2023-06-24T02:23:12;97614.72;;;21.72;48.61
61324;BME280;47203;48.428;11.974;2023-06-24T02:25:18;97622.25;;;21.70;48.20
61324;BME280;47203;48.428;11.974;2023-06-24T02:27:24;97626.06;;;21.69;48.02
61324;BME280;47203;48.428;11.974;2023-06-24T02:29:30;97624.47;;;21.68;48.69
61324;BME280;47203;48.428;11.974;2023-06-24T02:31:36;97624.47;;;21.68;48.37
61324;BME280;47203;48.428;11.974;2023-06-24T02:33:41;97621.81;;;21.68;48.60
61324;BME280;47203;48.428;11.974;2023-06-24T02:35:49;97625.56;;;21.67;48.64
61324;BME280;47203;48.428;11.974;2023-06-24T02:37:54;97633.59;;;21.67;48.74
61324;BME280;47203;48.428;11.974;2023-06-24T02:39:59;97635.50;;;21.66;48.45
61324;BME280;47203;48.428;11.974;2023-06-24T02:42:07;97625.88;;;21.65;48.46
61324;BME280;47203;48.428;11.974;2023-06-24T02:44:12;97627.31;;;21.63;48.95
61324;BME280;47203;48.428;11.974;2023-06-24T02:46:17;97630.00;;;21.63;48.85
61324;BME280;47203;48.428;11.974;2023-06-24T02:48:24;97633.28;;;21.59;48.79
61324;BME280;47203;48.428;11.974;2023-06-24T02:50:30;97635.50;;;21.57;48.61
61324;BME280;47203;48.428;11.974;2023-06-24T02:52:40;97638.81;;;21.54;49.28
61324;BME280;47203;48.428;11.974;2023-06-24T02:54:49;97644.16;;;21.54;48.56
61324;BME280;47203;48.428;11.974;2023-06-24T02:57:00;97646.34;;;21.52;48.78
61324;BME280;47203;48.428;11.974;2023-06-24T02:59:26;97644.00;;;21.51;49.18
61324;BME280;47203;48.428;11.974;2023-06-24T03:01:35;97644.78;;;21.51;48.84
61324;BME280;47203;48.428;11.974;2023-06-24T03:03:42;97649.34;;;21.51;49.11
61324;BME280;47203;48.428;11.974;2023-06-24T03:05:53;97653.59;;;21.52;48.95
61324;BME280;47203;48.428;11.974;2023-06-24T03:08:03;97652.84;;;21.51;49.69
61324;BME280;47203;48.428;11.974;2023-06-24T03:10:11;97660.88;;;21.51;49.40
61324;BME280;47203;48.428;11.974;2023-06-24T03:12:17;97662.75;;;21.51;49.36
61324;BME280;47203;48.428;11.974;2023-06-24T03:14:22;97665.69;;;21.49;49.55
61324;BME280;47203;48.428;11.974;2023-06-24T03:16:27;97659.88;;;21.47;49.32
61324;BME280;47203;48.428;11.974;2023-06-24T03:18:37;97660.97;;;21.46;49.46
61324;BME280;47203;48.428;11.974;2023-06-24T03:20:43;97673.59;;;21.45;49.38
61324;BME280;47203;48.428;11.974;2023-06-24T03:22:53;97682.41;;;21.46;49.44
61324;BME280;47203;48.428;11.974;2023-06-24T03:25:01;97674.69;;;21.44;49.78
61324;BME280;47203;48.428;11.974;2023-06-24T03:27:06;97677.03;;;21.46;49.49
61324;BME280;47203;48.428;11.974;2023-06-24T03:29:14;97683.22;;;21.47;49.87
61324;BME280;47203;48.428;11.974;2023-06-24T03:31:30;97678.16;;;21.45;49.51
61324;BME280;47203;48.428;11.974;2023-06-24T03:33:35;97692.03;;;21.47;49.91
61324;BME280;47203;48.428;11.974;2023-06-24T03:35:40;97695.78;;;21.46;49.45
61324;BME280;47203;48.428;11.974;2023-06-24T03:37:49;97688.88;;;21.45;49.45
61324;BME280;47203;48.428;11.974;2023-06-24T03:39:55;97696.09;;;21.44;49.79
61324;BME280;47203;48.428;11.974;2023-06-24T03:42:04;97697.19;;;21.43;49.74
61324;BME280;47203;48.428;11.974;2023-06-24T03:44:09;97691.06;;;21.43;49.90
61324;BME280;47203;48.428;11.974;2023-06-24T03:46:14;97691.56;;;21.45;49.70
61324;BME280;47203;48.428;11.974;2023-06-24T03:48:19;97697.69;;;21.45;49.58
61324;BME280;47203;48.428;11.974;2023-06-24T03:50:25;97694.69;;;21.47;49.90
61324;BME280;47203;48.428;11.974;2023-06-24T03:52:30;97697.38;;;21.47;49.75
61324;BME280;47203;48.428;11.974;2023-06-24T03:54:36;97703.50;;;21.48;50.02
61324;BME280;47203;48.428;11.974;2023-06-24T03:56:42;97699.28;;;21.47;49.91
61324;BME280;47203;48.428;11.974;2023-06-24T03:58:49;97706.19;;;21.48;50.10
61324;BME280;47203;48.428;11.974;2023-06-24T04:00:54;97703.19;;;21.49;49.73
61324;BME280;47203;48.428;11.974;2023-06-24T04:03:01;97706.19;;;21.48;49.61
61324;BME280;47203;48.428;11.974;2023-06-24T04:05:06;97702.72;;;21.47;49.70
61324;BME280;47203;48.428;11.974;2023-06-24T04:07:11;97707.00;;;21.48;50.23
61324;BME280;47203;48.428;11.974;2023-06-24T04:09:16;97702.72;;;21.47;50.21
61324;BME280;47203;48.428;11.974;2023-06-24T04:11:21;97709.19;;;21.46;50.46
61324;BME280;47203;48.428;11.974;2023-06-24T04:13:26;97704.94;;;21.45;50.48
61324;BME280;47203;48.428;11.974;2023-06-24T04:15:36;97701.47;;;21.44;50.70
61324;BME280;47203;48.428;11.974;2023-06-24T04:17:41;97701.00;;;21.42;50.33
61324;BME280;47203;48.428;11.974;2023-06-24T04:19:46;97706.66;;;21.41;50.58
61324;BME280;47203;48.428;11.974;2023-06-24T04:21:51;97701.31;;;21.41;50.70
61324;BME280;47203;48.428;11.974;2023-06-24T04:23:59;97700.50;;;21.40;50.31
61324;BME280;47203;48.428;11.974;2023-06-24T04:26:04;97705.84;;;21.40;50.85
61324;BME280;47203;48.428;11.974;2023-06-24T04:28:08;97703.16;;;21.40;50.65
61324;BME280;47203;48.428;11.974;2023-06-24T04:30:13;97699.25;;;21.38;50.90
61324;BME280;47203;48.428;11.974;2023-06-24T04:32:21;97697.00;;;21.31;50.77
61324;BME280;47203;48.428;11.974;2023-06-24T04:34:26;97709.94;;;21.29;50.90
61324;BME280;47203;48.428;11.974;2023-06-24T04:36:31;97703.31;;;21.26;50.79
61324;BME280;47203;48.428;11.974;2023-06-24T04:38:37;97706.28;;;21.25;51.07
61324;BME280;47203;48.428;11.974;2023-06-24T04:40:42;97706.91;;;21.22;50.62
61324;BME280;47203;48.428;11.974;2023-06-24T04:42:47;97710.50;;;21.17;51.03
61324;BME280;47203;48.428;11.974;2023-06-24T04:44:52;97710.81;;;21.16;50.92
61324;BME280;47203;48.428;11.974;2023-06-24T04:46:57;97716.16;;;21.16;51.21
61324;BME280;47203;48.428;11.974;2023-06-24T04:49:05;97711.91;;;21.15;51.53
61324;BME280;47203;48.428;11.974;2023-06-24T04:51:10;97711.59;;;21.16;51.32
61324;BME280;47203;48.428;11.974;2023-06-24T04:53:15;97714.28;;;21.16;50.86
61324;BME280;47203;48.428;11.974;2023-06-24T04:55:21;97713.16;;;21.17;51.12
61324;BME280;47203;48.428;11.974;2023-06-24T04:57:27;97714.28;;;21.16;51.14
61324;BME280;47203;48.428;11.974;2023-06-24T04:59:32;97711.59;;;21.16;51.22
61324;BME280;47203;48.428;11.974;2023-06-24T05:01:38;97715.38;;;21.15;51.17
61324;BME280;47203;48.428;11.974;2023-06-24T05:03:43;97717.28;;;21.15;51.11
61324;BME280;47203;48.428;11.974;2023-06-24T05:05:50;97717.59;;;21.13;51.41
61324;BME280;47203;48.428;11.974;2023-06-24T05:07:55;97717.59;;;21.13;51.42
61324;BME280;47203;48.428;11.974;2023-06-24T05:10:00;97730.34;;;21.16;51.10
61324;BME280;47203;48.428;11.974;2023-06-24T05:12:06;97727.06;;;21.19;51.17
61324;BME280;47203;48.428;11.974;2023-06-24T05:14:11;97729.09;;;21.22;50.90
61324;BME280;47203;48.428;11.974;2023-06-24T05:16:16;97726.13;;;21.24;51.15
61324;BME280;47203;48.428;11.974;2023-06-24T05:18:21;97732.75;;;21.26;51.03
61324;BME280;47203;48.428;11.974;2023-06-24T05:20:26;97734.81;;;21.30;51.34
61324;BME280;47203;48.428;11.974;2023-06-24T05:22:34;97733.41;;;21.32;51.14
61324;BME280;47203;48.428;11.974;2023-06-24T05:24:39;97745.38;;;21.35;51.28
61324;BME280;47203;48.428;11.974;2023-06-24T05:26:48;97736.56;;;21.34;51.23
61324;BME280;47203;48.428;11.974;2023-06-24T05:28:53;97738.13;;;21.35;51.36
61324;BME280;47203;48.428;11.974;2023-06-24T05:30:58;97740.81;;;21.35;50.93
61324;BME280;47203;48.428;11.974;2023-06-24T05:33:03;97733.25;;;21.37;51.49
61324;BME280;47203;48.428;11.974;2023-06-24T05:35:12;97739.56;;;21.41;51.40
61324;BME280;47203;48.428;11.974;2023-06-24T05:37:17;97738.47;;;21.42;51.12
61324;BME280;47203;48.428;11.974;2023-06-24T05:39:24;97741.94;;;21.43;51.18
61324;BME280;47203;48.428;11.974;2023-06-24T05:41:29;97740.53;;;21.45;51.16
61324;BME280;47203;48.428;11.974;2023-06-24T05:43:34;97747.94;;;21.49;50.99
61324;BME280;47203;48.428;11.974;2023-06-24T05:45:42;97746.03;;;21.49;51.29
61324;BME280;47203;48.428;11.974;2023-06-24T05:47:48;97745.75;;;21.51;51.23
61324;BME280;47203;48.428;11.974;2023-06-24T05:49:52;97745.75;;;21.51;51.08
61324;BME280;47203;48.428;11.974;2023-06-24T05:51:59;97740.91;;;21.53;50.97
61324;BME280;47203;48.428;11.974;2023-06-24T05:54:04;97747.53;;;21.55;50.75
61324;BME280;47203;48.428;11.974;2023-06-24T05:56:12;97744.25;;;21.58;51.43
61324;BME280;47203;48.428;11.974;2023-06-24T05:58:17;97746.75;;;21.64;51.22
61324;BME280;47203;48.428;11.974;2023-06-24T06:00:22;97748.81;;;21.67;50.76
61324;BME280;47203;48.428;11.974;2023-06-24T06:02:27;97752.44;;;21.71;50.95
61324;BME280;47203;48.428;11.974;2023-06-24T06:04:32;97752.63;;;21.74;51.19
61324;BME280;47203;48.428;11.974;2023-06-24T06:06:37;97755.00;;;21.76;50.78
61324;BME280;47203;48.428;11.974;2023-06-24T06:08:42;97749.31;;;21.77;50.77
61324;BME280;47203;48.428;11.974;2023-06-24T06:10:47;97752.47;;;21.79;51.00
61324;BME280;47203;48.428;11.974;2023-06-24T06:12:57;97750.28;;;21.82;50.92
61324;BME280;47203;48.428;11.974;2023-06-24T06:15:03;97756.09;;;21.84;50.87
61324;BME280;47203;48.428;11.974;2023-06-24T06:17:08;97752.03;;;21.86;50.78
61324;BME280;47203;48.428;11.974;2023-06-24T06:19:13;97751.41;;;21.89;50.70
61324;BME280;47203;48.428;11.974;2023-06-24T06:21:18;97749.50;;;21.90;50.79
61324;BME280;47203;48.428;11.974;2023-06-24T06:23:23;97753.75;;;21.91;50.20
61324;BME280;47203;48.428;11.974;2023-06-24T06:25:29;97747.31;;;21.92;50.20
61324;BME280;47203;48.428;11.974;2023-06-24T06:27:34;97755.81;;;21.94;50.63
61324;BME280;47203;48.428;11.974;2023-06-24T06:29:42;97741.00;;;21.96;50.34
61324;BME280;47203;48.428;11.974;2023-06-24T06:31:47;97744.16;;;21.99;50.41
61324;BME280;47203;48.428;11.974;2023-06-24T06:33:52;97746.69;;;22.04;50.54
61324;BME280;47203;48.428;11.974;2023-06-24T06:35:57;97748.09;;;22.10;50.69
61324;BME280;47203;48.428;11.974;2023-06-24T06:38:01;97747.94;;;22.15;50.34
61324;BME280;47203;48.428;11.974;2023-06-24T06:40:08;97749.69;;;22.20;50.22
61324;BME280;47203;48.428;11.974;2023-06-24T06:42:13;97745.25;;;22.24;49.82
61324;BME280;47203;48.428;11.974;2023-06-24T06:44:18;97747.34;;;22.27;49.99
61324;BME280;47203;48.428;11.974;2023-06-24T06:46:26;97745.13;;;22.29;49.58
61324;BME280;47203;48.428;11.974;2023-06-24T06:48:31;97752.06;;;22.30;49.46
61324;BME280;47203;48.428;11.974;2023-06-24T06:50:36;97753.03;;;22.34;49.51
61324;BME280;47203;48.428;11.974;2023-06-24T06:52:41;97749.72;;;22.37;49.25
61324;BME280;47203;48.428;11.974;2023-06-24T06:54:46;97746.72;;;22.39;49.43
61324;BME280;47203;48.428;11.974;2023-06-24T06:56:51;97749.56;;;22.42;49.32
61324;BME280;47203;48.428;11.974;2023-06-24T06:58:57;97752.72;;;22.44;49.03
61324;BME280;47203;48.428;11.974;2023-06-24T07:01:02;97747.50;;;22.48;49.02
61324;BME280;47203;48.428;11.974;2023-06-24T07:03:10;97754.91;;;22.51;49.25
61324;BME280;47203;48.428;11.974;2023-06-24T07:05:15;97745.91;;;22.56;49.14
61324;BME280;47203;48.428;11.974;2023-06-24T07:07:20;97754.91;;;22.60;48.99
61324;BME280;47203;48.428;11.974;2023-06-24T07:09:26;97748.91;;;22.63;48.52
61324;BME280;47203;48.428;11.974;2023-06-24T07:11:30;97749.38;;;22.65;48.66
61324;BME280;47203;48.428;11.974;2023-06-24T07:13:35;97754.44;;;22.66;48.55
61324;BME280;47203;48.428;11.974;2023-06-24T07:15:40;97754.88;;;22.69;48.80
61324;BME280;47203;48.428;11.974;2023-06-24T07:17:45;97752.38;;;22.72;48.50
61324;BME280;47203;48.428;11.974;2023-06-24T07:19:53;97742.88;;;22.75;47.89
61324;BME280;47203;48.428;11.974;2023-06-24T07:21:58;97752.84;;;22.74;48.17
61324;BME280;47203;48.428;11.974;2023-06-24T07:24:03;97757.44;;;22.74;48.08
61324;BME280;47203;48.428;11.974;2023-06-24T07:26:08;97757.44;;;22.74;48.11
61324;BME280;47203;48.428;11.974;2023-06-24T07:28:13;97755.19;;;22.76;48.11
61324;BME280;47203;48.428;11.974;2023-06-24T07:30:18;97760.25;;;22.77;48.07
61324;BME280;47203;48.428;11.974;2023-06-24T07:32:26;97758.06;;;22.79;47.82
61324;BME280;47203;48.428;11.974;2023-06-24T07:34:31;97751.56;;;22.80;48.11
61324;BME280;47203;48.428;11.974;2023-06-24T07:36:39;97749.69;;;22.81;47.57
61324;BME280;47203;48.428;11.974;2023-06-24T07:38:44;97750.91;;;22.83;47.46
61324;BME280;47203;48.428;11.974;2023-06-24T07:40:49;97748.22;;;22.83;47.24
61324;BME280;47203;48.428;11.974;2023-06-24T07:42:53;97749.03;;;22.84;47.80
61324;BME280;47203;48.428;11.974;2023-06-24T07:44:59;97750.59;;;22.85;47.48
61324;BME280;47203;48.428;11.974;2023-06-24T07:47:04;97758.03;;;22.88;47.68
61324;BME280;47203;48.428;11.974;2023-06-24T07:49:09;97758.31;;;22.87;47.03
61324;BME280;47203;48.428;11.974;2023-06-24T07:51:14;97752.19;;;22.86;47.13
61324;BME280;47203;48.428;11.974;2023-06-24T07:53:22;97755.19;;;22.84;47.08
61324;BME280;47203;48.428;11.974;2023-06-24T07:55:27;97766.25;;;22.83;47.02
61324;BME280;47203;48.428;11.974;2023-06-24T07:57:32;97755.50;;;22.83;47.02
61324;BME280;47203;48.428;11.974;2023-06-24T07:59:37;97762.91;;;22.86;47.60
61324;BME280;47203;48.428;11.974;2023-06-24T08:01:43;97758.81;;;22.89;47.65
61324;BME280;47203;48.428;11.974;2023-06-24T08:03:48;97766.34;;;22.95;47.50
61324;BME280;47203;48.428;11.974;2023-06-24T08:05:53;97762.41;;;23.01;47.58
61324;BME280;47203;48.428;11.974;2023-06-24T08:07:58;97761.44;;;23.06;47.37
61324;BME280;47203;48.428;11.974;2023-06-24T08:10:07;97764.78;;;23.12;47.12
61324;BME280;47203;48.428;11.974;2023-06-24T08:12:13;97764.59;;;23.17;47.71
61324;BME280;47203;48.428;11.974;2023-06-24T08:14:18;97764.13;;;23.24;47.48
61324;BME280;47203;48.428;11.974;2023-06-24T08:16:23;97763.59;;;23.30;47.98
61324;BME280;47203;48.428;11.974;2023-06-24T08:18:28;97767.69;;;23.37;47.58
61324;BME280;47203;48.428;11.974;2023-06-24T08:20:33;97762.47;;;23.40;46.96
61324;BME280;47203;48.428;11.974;2023-06-24T08:22:38;97761.47;;;23.45;46.68
61324;BME280;47203;48.428;11.974;2023-06-24T08:24:43;97765.44;;;23.47;46.66
61324;BME280;47203;48.428;11.974;2023-06-24T08:26:51;97767.78;;;23.49;45.89
61324;BME280;47203;48.428;11.974;2023-06-24T08:28:56;97761.00;;;23.51;46.33
61324;BME280;47203;48.428;11.974;2023-06-24T08:31:05;97753.88;;;23.56;46.29
61324;BME280;47203;48.428;11.974;2023-06-24T08:33:10;97754.31;;;23.58;46.05
61324;BME280;47203;48.428;11.974;2023-06-24T08:35:15;97749.44;;;23.60;45.48
61324;BME280;47203;48.428;11.974;2023-06-24T08:37:20;97748.94;;;23.58;44.92
61324;BME280;47203;48.428;11.974;2023-06-24T08:39:25;97745.00;;;23.55;45.03
61324;BME280;47203;48.428;11.974;2023-06-24T08:41:30;97743.91;;;23.56;44.93
61324;BME280;47203;48.428;11.974;2023-06-24T08:43:38;97745.16;;;23.59;45.40
61324;BME280;47203;48.428;11.974;2023-06-24T08:45:45;97741.16;;;23.65;45.52
61324;BME280;47203;48.428;11.974;2023-06-24T08:47:50;97742.53;;;23.71;45.44
61324;BME280;47203;48.428;11.974;2023-06-24T08:50:02;97745.19;;;23.80;45.30
61324;BME280;47203;48.428;11.974;2023-06-24T08:52:11;97736.63;;;23.86;44.99
61324;BME280;47203;48.428;11.974;2023-06-24T08:54:19;97743.88;;;23.95;45.66
61324;BME280;47203;48.428;11.974;2023-06-24T08:56:24;97746.50;;;24.03;45.67
61324;BME280;47203;48.428;11.974;2023-06-24T08:58:30;97748.78;;;24.14;46.12
61324;BME280;47203;48.428;11.974;2023-06-24T09:00:37;97743.34;;;24.22;45.87
61324;BME280;47203;48.428;11.974;2023-06-24T09:02:43;97741.03;;;24.33;45.74
61324;BME280;47203;48.428;11.974;2023-06-24T09:04:50;97742.22;;;24.45;45.44
61324;BME280;47203;48.428;11.974;2023-06-24T09:06:56;97743.56;;;24.51;45.33
61324;BME280;47203;48.428;11.974;2023-06-24T09:09:01;97753.00;;;24.57;45.12
61324;BME280;47203;48.428;11.974;2023-06-24T09:11:08;97745.22;;;24.64;45.31
61324;BME280;47203;48.428;11.974;2023-06-24T09:13:13;97747.81;;;24.73;44.93
61324;BME280;47203;48.428;11.974;2023-06-24T09:15:18;97744.72;;;24.83;45.05
61324;BME280;47203;48.428;11.974;2023-06-24T09:17:26;97748.91;;;24.93;44.97
61324;BME280;47203;48.428;11.974;2023-06-24T09:19:32;97749.25;;;25.04;45.01
61324;BME280;47203;48.428;11.974;2023-06-24T09:21:38;97744.56;;;25.13;44.61
61324;BME280;47203;48.428;11.974;2023-06-24T09:23:43;97737.81;;;25.19;44.11
61324;BME280;47203;48.428;11.974;2023-06-24T09:25:55;97738.41;;;25.25;44.42
61324;BME280;47203;48.428;11.974;2023-06-24T09:28:00;97739.44;;;25.33;44.19
61324;BME280;47203;48.428;11.974;2023-06-24T09:30:17;97736.28;;;25.43;43.18
61324;BME280;47203;48.428;11.974;2023-06-24T09:32:29;97735.84;;;25.53;43.12
61324;BME280;47203;48.428;11.974;2023-06-24T09:34:35;97737.97;;;25.60;43.91
61324;BME280;47203;48.428;11.974;2023-06-24T09:36:42;97725.16;;;25.69;43.79
61324;BME280;47203;48.428;11.974;2023-06-24T09:38:47;97737.84;;;25.81;43.89
61324;BME280;47203;48.428;11.974;2023-06-24T09:41:01;97731.19;;;25.91;43.62
61324;BME280;47203;48.428;11.974;2023-06-24T09:43:20;97725.22;;;25.98;43.16
61324;BME280;47203;48.428;11.974;2023-06-24T09:45:26;97731.66;;;26.05;42.44
61324;BME280;47203;48.428;11.974;2023-06-24T09:47:34;97735.22;;;26.09;42.09
61324;BME280;47203;48.428;11.974;2023-06-24T09:49:39;97726.88;;;26.15;42.32
61324;BME280;47203;48.428;11.974;2023-06-24T09:51:47;97732.84;;;26.20;42.03
61324;BME280;47203;48.428;11.974;2023-06-24T09:53:53;97715.03;;;26.32;42.10
61324;BME280;47203;48.428;11.974;2023-06-24T09:56:00;97720.38;;;26.44;41.13
61324;BME280;47203;48.428;11.974;2023-06-24T09:58:06;97717.63;;;26.56;41.27
61324;BME280;47203;48.428;11.974;2023-06-24T10:00:12;97711.41;;;26.68;41.20
61324;BME280;47203;48.428;11.974;2023-06-24T10:02:18;97704.34;;;26.79;40.72
61324;BME280;47203;48.428;11.974;2023-06-24T10:04:26;97717.25;;;26.86;40.07
61324;BME280;47203;48.428;11.974;2023-06-24T10:06:32;97703.41;;;26.88;40.38
61324;BME280;47203;48.428;11.974;2023-06-24T10:08:37;97703.75;;;26.86;40.11
61324;BME280;47203;48.428;11.974;2023-06-24T10:10:42;97700.16;;;26.82;39.71
61324;BME280;47203;48.428;11.974;2023-06-24T10:12:47;97697.38;;;26.78;39.61
61324;BME280;47203;48.428;11.974;2023-06-24T10:14:52;97692.69;;;26.75;39.62
61324;BME280;47203;48.428;11.974;2023-06-24T10:17:01;97702.16;;;26.69;38.61
61324;BME280;47203;48.428;11.974;2023-06-24T10:19:06;97696.53;;;26.62;38.86
61324;BME280;47203;48.428;11.974;2023-06-24T10:21:15;97697.50;;;26.54;38.29
61324;BME280;47203;48.428;11.974;2023-06-24T10:23:22;97683.81;;;26.46;38.82
61324;BME280;47203;48.428;11.974;2023-06-24T10:25:35;97683.63;;;26.39;38.29
61324;BME280;47203;48.428;11.974;2023-06-24T10:27:40;97687.44;;;26.38;38.53
61324;BME280;47203;48.428;11.974;2023-06-24T10:29:47;97682.50;;;26.40;38.63
61324;BME280;47203;48.428;11.974;2023-06-24T10:31:53;97684.50;;;26.43;38.68
61324;BME280;47203;48.428;11.974;2023-06-24T10:33:59;97680.34;;;26.46;38.47
61324;BME280;47203;48.428;11.974;2023-06-24T10:36:31;97681.31;;;26.54;38.04
61324;BME280;47203;48.428;11.974;2023-06-24T10:38:38;97676.09;;;26.61;38.79
61324;BME280;47203;48.428;11.974;2023-06-24T10:40:43;97676.47;;;26.75;38.88
61324;BME280;47203;48.428;11.974;2023-06-24T10:42:49;97672.56;;;26.89;38.56
61324;BME280;47203;48.428;11.974;2023-06-24T10:44:56;97668.63;;;27.02;38.40
61324;BME280;47203;48.428;11.974;2023-06-24T10:47:02;97667.75;;;27.14;38.33
61324;BME280;47203;48.428;11.974;2023-06-24T10:49:07;97672.63;;;27.24;37.94
61324;BME280;47203;48.428;11.974;2023-06-24T10:51:12;97671.75;;;27.36;38.02
61324;BME280;47203;48.428;11.974;2023-06-24T10:53:21;97665.81;;;27.46;38.44
61324;BME280;47203;48.428;11.974;2023-06-24T10:55:26;97669.13;;;27.56;38.69
61324;BME280;47203;48.428;11.974;2023-06-24T10:57:31;97663.06;;;27.62;37.98
61324;BME280;47203;48.428;11.974;2023-06-24T10:59:39;97662.00;;;27.67;37.35
61324;BME280;47203;48.428;11.974;2023-06-24T11:01:52;97660.50;;;27.69;37.28
61324;BME280;47203;48.428;11.974;2023-06-24T11:03:56;97657.38;;;27.67;37.87